• Join FlightAware (Why Join?)
  • Login
  • US Flag 
01:11AM EDT


 

Airport Tracker/Info


-or-


 

Live Flight TrackerFlight Track Log ✈ CTL309 ✈ 03-Jun-2013 ✈ KBKL - KOSU

Flight Track Log - Related Links

Times and Time Zones

All times are in EDT time to prevent confusion due to time zone crossing. See the CTL309 flight status page for this flight to view local times or setup timezone preferences in your user account.

Time Position Orientation Groundspeed Altitude Reporting Facility
EDT Latitude Longitude Course Direction KTS MPH feet Rate Location/Type
09:54PM 41.5336 -81.6761 352° North 107 123 1,300  Level Cleveland Center
09:55PM 41.5669 -81.6822 352° North 144 166 2,200 1,260 Climbing Cleveland Center
09:56PM 41.5506 -81.6542 128° Southeast 130 150 3,600 1,080 Climbing Cleveland Center
09:57PM 41.5153 -81.6314 154° Southeast 151 174 4,400 840 Climbing Cleveland Center
09:58PM 41.4761 -81.6003 149° Southeast 160 184 5,400 840 Climbing Cleveland Center
09:59PM 41.4344 -81.5967 176° South 163 188 6,100 240 Climbing Cleveland Center
10:00PM 41.3903 -81.6294 209° Southwest 179 206 6,000 -60 Descending Cleveland Center
10:01PM 41.3522 -81.6731 221° Southwest 180 207 6,000  Level Cleveland Center
10:02PM 41.3164 -81.7194 224° Southwest 181 208 6,100  Climbing Cleveland Center
10:03PM 41.2783 -81.7628 221° Southwest 182 209 6,100 -60 Level Cleveland Center
10:04PM 41.2364 -81.8119 221° Southwest 179 206 6,000  Descending Cleveland Center
10:05PM 41.2025 -81.8525 222° Southwest 183 211 6,100  Climbing Cleveland Center
10:06PM 41.1622 -81.8986 221° Southwest 181 208 6,100  Level Cleveland Center
10:07PM 41.1244 -81.9339 215° Southwest 182 209 6,100 -60 Level Cleveland Center
10:08PM 41.0883 -81.9772 222° Southwest 178 205 6,000 -60 Descending Cleveland Center
10:10PM 41.0408 -82.0597 233° Southwest  Level FlightAware Approximate
10:12PM 40.9256 -82.1558 216° Southwest 176 203 6,000  Level Indianapolis Center
10:13PM 40.8867 -82.1983 220° Southwest 178 205 6,000  Level Indianapolis Center
10:14PM 40.8469 -82.2428 220° Southwest 183 211 6,100  Climbing Indianapolis Center
10:15PM 40.8086 -82.2853 220° Southwest 180 207 6,000 -120 Descending Indianapolis Center
10:16PM 40.7617 -82.3350 219° Southwest 182 209 5,900 -60 Descending Indianapolis Center
10:17PM 40.8080 -82.3547 216° Southwest  Level FlightAware Approximate
10:17PM 40.7233 -82.3772 220° Southwest 180 207 5,900  Level Indianapolis Center
10:18PM 40.7715 -82.3900 216° Southwest  Level FlightAware Approximate
10:18PM 40.6833 -82.4181 218° Southwest 180 207 5,900  Level Indianapolis Center
10:19PM 40.6444 -82.4597 219° Southwest 179 206 5,900  Level Indianapolis Center
10:20PM 40.6067 -82.5014 220° Southwest 176 203 5,900  Level Indianapolis Center
10:21PM 40.5683 -82.5439 220° Southwest 177 204 5,900  Level Indianapolis Center
10:22PM 40.5292 -82.5850 219° Southwest 178 205 5,900  Level Indianapolis Center
10:23PM 40.4906 -82.6267 219° Southwest 178 205 5,900  Level Indianapolis Center
10:24PM 40.4650 -82.6564 222° Southwest 177 204 5,900  Level Indianapolis Center
10:25PM 40.4522 -82.6675 213° Southwest 177 204 5,900  Level Indianapolis Center
10:25PM 40.4267 -82.6986 223° Southwest 178 205 5,900  Level Indianapolis Center
10:26PM 40.4150 -82.7097 216° Southwest 175 201 5,900  Level Indianapolis Center
10:26PM 40.3886 -82.7383 220° Southwest 178 205 5,900  Level Indianapolis Center
10:27PM 40.3756 -82.7492 212° Southwest 176 203 5,900  Level Indianapolis Center
10:27PM 40.3525 -82.7753 221° Southwest 180 207 5,900  Level Indianapolis Center
10:28PM 40.3347 -82.7917 215° Southwest 182 209 5,900 -120 Level Indianapolis Center
10:28PM 40.3100 -82.8197 221° Southwest 179 206 5,800 -600 Descending Indianapolis Center
10:29PM 40.2944 -82.8350 217° Southwest 183 211 5,300 -960 Descending Indianapolis Center
10:29PM 40.2647 -82.8719 223° Southwest 205 236 4,800 -840 Descending Indianapolis Center
10:30PM 40.2508 -82.8842 214° Southwest 197 227 4,500 -900 Descending Indianapolis Center
10:30PM 40.2197 -82.9186 220° Southwest 206 237 3,900 -1,020 Descending Indianapolis Center
10:31PM 40.2069 -82.9308 216° Southwest 201 231 3,500 -1,140 Descending Indianapolis Center
10:31PM 40.1814 -82.9578 219° Southwest 195 224 2,900 -720 Descending Indianapolis Center
10:32PM 40.1642 -82.9758 219° Southwest 198 228 2,800  Descending Indianapolis Center
10:32PM 40.1589 -83.0125 259° West 180 207 2,900 60 Climbing Indianapolis Center
10:33PM 40.1575 -83.0372 266° West 185 213 2,900  Level Indianapolis Center
10:33PM 40.1622 -83.0539 290° West 161 185 2,900  Level Indianapolis Center
10:34PM 40.1628 -83.0328 88° East 189 217 2,900  Level Indianapolis Center
10:36PM 40.0852 -83.0706 201° Southwest  Level Estimated
10:43PM 40.0798 -83.0732 201° Southwest  Level Estimated
10:44PM 40.0798 -83.0732 201° Southwest  Level Estimated